createdAt,value
2018-10-11T00:00:19.868Z,102211.70
2018-10-11T00:01:22.479Z,102209.98
2018-10-11T00:02:25.095Z,102202.84
2018-10-11T00:03:27.695Z,102204.27
2018-10-11T00:04:30.303Z,102207.31
2018-10-11T00:05:32.929Z,102207.31
2018-10-11T00:06:35.530Z,102205.14
2018-10-11T00:07:38.124Z,102204.27
2018-10-11T00:08:40.751Z,102206.94
2018-10-11T00:09:43.355Z,102206.57
2018-10-11T00:10:45.951Z,102205.23
2018-10-11T00:11:48.538Z,102208.88
2018-10-11T00:12:51.119Z,102211.45
2018-10-11T00:13:53.723Z,102215.47
2018-10-11T00:14:56.310Z,102218.60
2018-10-11T00:15:58.899Z,102218.23
2018-10-11T00:17:01.508Z,102222.23
2018-10-11T00:18:04.111Z,102224.50
2018-10-11T00:19:06.933Z,102225.41
2018-10-11T00:20:09.554Z,102230.26
2018-10-11T00:21:12.143Z,102233.49
2018-10-11T00:22:14.991Z,102232.16
2018-10-11T00:23:17.575Z,102234.83
2018-10-11T00:24:20.163Z,102234.83
2018-10-11T00:25:22.789Z,102235.70
2018-10-11T00:26:25.404Z,102231.31
2018-10-11T00:27:28.020Z,102235.33
2018-10-11T00:28:30.612Z,102235.33
2018-10-11T00:29:33.302Z,102236.16
2018-10-11T00:30:35.959Z,102234.36
2018-10-11T00:31:38.627Z,102233.98
2018-10-11T00:32:41.448Z,102236.66
2018-10-11T00:33:44.050Z,102238.00
2018-10-11T00:34:46.754Z,102237.50
2018-10-11T00:35:49.339Z,102240.17
2018-10-11T00:36:52.170Z,102238.46
2018-10-11T00:37:54.762Z,102243.34
2018-10-11T00:38:57.347Z,102236.75
2018-10-11T00:40:00.054Z,102241.64
2018-10-11T00:41:02.643Z,102240.77
2018-10-11T00:42:05.316Z,102243.44
2018-10-11T00:43:07.966Z,102245.64
2018-10-11T00:44:14.181Z,102242.22
2018-10-11T00:45:16.885Z,102249.75
2018-10-11T00:46:19.491Z,102247.45
2018-10-11T00:47:22.076Z,102249.75
2018-10-11T00:48:24.679Z,102255.09
2018-10-11T00:49:27.305Z,102253.38
2018-10-11T00:50:30.003Z,102256.05
2018-10-11T00:51:32.592Z,102251.09
2018-10-11T00:52:35.191Z,102254.72
2018-10-11T00:53:37.792Z,102258.27
2018-10-11T00:54:40.391Z,102252.17
2018-10-11T00:55:43.087Z,102250.84
2018-10-11T00:56:45.703Z,102248.62
2018-10-11T00:57:48.308Z,102249.97
2018-10-11T00:58:50.912Z,102252.17
2018-10-11T00:59:53.512Z,102249.50
2018-10-11T01:00:56.197Z,102243.78
2018-10-11T01:01:58.799Z,102250.46
2018-10-11T01:03:01.396Z,102251.30
2018-10-11T01:04:04.042Z,102253.13
2018-10-11T01:05:06.997Z,102250.92
2018-10-11T01:06:09.967Z,102252.27
2018-10-11T01:07:12.573Z,102245.70
2018-10-11T01:08:15.221Z,102244.24
2018-10-11T01:09:17.838Z,102250.09
2018-10-11T01:10:20.439Z,102248.38
2018-10-11T01:11:23.155Z,102241.78
2018-10-11T01:12:25.771Z,102241.28
2018-10-11T01:13:28.411Z,102240.45
2018-10-11T01:14:31.012Z,102249.31
2018-10-11T01:15:33.756Z,102244.45
2018-10-11T01:16:36.463Z,102241.78
2018-10-11T01:17:39.143Z,102246.26
2018-10-11T01:18:41.760Z,102241.88
2018-10-11T01:19:44.358Z,102246.26
2018-10-11T01:20:46.980Z,102242.75
2018-10-11T01:21:49.678Z,102243.70
2018-10-11T01:22:52.275Z,102240.66
2018-10-11T01:23:55.172Z,102249.89
2018-10-11T01:24:57.759Z,102245.51
2018-10-11T01:26:00.369Z,102250.39
2018-10-11T01:27:03.411Z,102250.39
2018-10-11T01:28:06.199Z,102253.16
2018-10-11T01:29:08.812Z,102252.69
2018-10-11T01:30:11.469Z,102247.44
2018-10-11T01:31:21.201Z,102249.64
2018-10-11T01:32:24.233Z,102254.49
2018-10-11T01:33:26.840Z,102257.29
2018-10-11T01:34:29.444Z,102260.80
2018-10-11T01:35:32.035Z,102260.92
2018-10-11T01:36:34.639Z,102266.27
2018-10-11T01:37:37.567Z,102263.59
2018-10-11T01:38:40.306Z,102262.72
2018-10-11T01:39:42.895Z,102267.23
2018-10-11T01:40:45.655Z,102273.33
2018-10-11T01:41:48.391Z,102267.70
2018-10-11T01:43:01.216Z,102265.52
2018-10-11T01:44:03.892Z,102267.23
2018-10-11T01:45:07.024Z,102270.87
2018-10-11T01:46:09.667Z,102269.91
2018-10-11T01:47:12.279Z,102266.86
2018-10-11T01:48:14.923Z,102266.48
2018-10-11T01:49:17.608Z,102265.98
2018-10-11T01:50:20.223Z,102261.60
2018-10-11T01:51:22.847Z,102267.82
2018-10-11T01:52:25.459Z,102266.48
2018-10-11T01:53:28.049Z,102271.83
2018-10-11T01:54:30.882Z,102268.78
2018-10-11T01:55:33.503Z,102269.74
2018-10-11T01:56:36.134Z,102270.12
2018-10-11T01:57:38.736Z,102268.78
2018-10-11T01:58:41.355Z,102274.13
2018-10-11T01:59:43.987Z,102275.09
2018-10-11T02:00:46.587Z,102277.77
2018-10-11T02:01:49.172Z,102280.06
2018-10-11T02:02:51.771Z,102280.06
2018-10-11T02:03:54.380Z,102282.73
2018-10-11T02:04:56.997Z,102278.72
2018-10-11T02:05:59.607Z,102284.06
2018-10-11T02:07:02.243Z,102281.39
2018-10-11T02:08:05.160Z,102278.34
2018-10-11T02:09:07.883Z,102277.47
2018-10-11T02:10:10.506Z,102273.47
2018-10-11T02:11:13.104Z,102279.69
2018-10-11T02:12:15.699Z,102280.64
2018-10-11T02:13:18.287Z,102281.98
2018-10-11T02:14:20.872Z,102285.03
2018-10-11T02:15:23.663Z,102285.49
2018-10-11T02:16:26.275Z,102285.61
2018-10-11T02:17:28.876Z,102283.78
2018-10-11T02:18:31.485Z,102290.00
2018-10-11T02:19:34.077Z,102283.91
2018-10-11T02:20:36.672Z,102288.28
2018-10-11T02:21:39.547Z,102288.75
2018-10-11T02:22:42.134Z,102286.08
2018-10-11T02:23:44.720Z,102284.37
2018-10-11T02:24:47.320Z,102283.03
2018-10-11T02:25:50.157Z,102282.56
2018-10-11T02:26:52.747Z,102276.84
2018-10-11T02:27:55.355Z,102272.47
2018-10-11T02:28:57.971Z,102278.65
2018-10-11T02:30:00.580Z,102277.81
2018-10-11T02:31:03.207Z,102273.30
2018-10-11T02:32:06.011Z,102280.48
2018-10-11T02:33:08.480Z,102274.64
2018-10-11T02:34:11.077Z,102272.55
2018-10-11T02:35:13.691Z,102273.42
2018-10-11T02:36:16.295Z,102273.89
2018-10-11T02:37:18.895Z,102282.28
2018-10-11T02:38:21.483Z,102274.77
2018-10-11T02:39:24.063Z,102274.27
2018-10-11T02:40:26.647Z,102277.44
2018-10-11T02:41:29.259Z,102249.56
2018-10-11T02:42:31.863Z,102273.05
2018-10-11T02:43:34.468Z,102278.77
2018-10-11T02:44:37.092Z,102270.37
2018-10-11T02:45:39.747Z,102276.09
2018-10-11T02:46:42.375Z,102271.72
2018-10-11T02:47:44.989Z,102273.05
2018-10-11T02:48:47.591Z,102271.30
2018-10-11T02:49:50.212Z,102267.30
2018-10-11T02:50:52.818Z,102272.17
2018-10-11T02:51:56.179Z,102273.98
2018-10-11T02:52:58.781Z,102267.30
2018-10-11T02:54:01.451Z,102269.59
2018-10-11T02:55:04.372Z,102274.94
2018-10-11T02:56:07.129Z,102277.61
2018-10-11T02:57:20.852Z,102274.47
2018-10-11T02:58:34.727Z,102280.66
2018-10-11T02:59:37.435Z,102279.32
2018-10-11T03:00:40.115Z,102284.29
2018-10-11T03:01:42.862Z,102286.97
2018-10-11T03:02:46.215Z,102291.55
2018-10-11T03:03:52.347Z,102297.28
2018-10-11T03:04:55.067Z,102298.23
2018-10-11T03:05:59.235Z,102304.45
2018-10-11T03:07:02.219Z,102305.29
2018-10-11T03:08:06.179Z,102311.59
2018-10-11T03:09:09.199Z,102308.92
2018-10-11T03:10:11.905Z,102307.59
2018-10-11T03:11:14.655Z,102314.39
2018-10-11T03:12:17.376Z,102318.77
2018-10-11T03:13:20.029Z,102323.74
2018-10-11T03:14:22.680Z,102321.91
2018-10-11T03:15:25.544Z,102326.04
2018-10-11T03:16:28.199Z,102329.17
2018-10-11T03:17:30.819Z,102328.70
2018-10-11T03:18:33.435Z,102332.72
2018-10-11T03:19:36.067Z,102331.84
2018-10-11T03:20:39.459Z,102331.01
2018-10-11T03:21:42.104Z,102336.35
2018-10-11T03:22:44.787Z,102334.05
2018-10-11T03:23:47.391Z,102325.75
2018-10-11T03:24:49.995Z,102329.17
2018-10-11T03:25:52.631Z,102330.13
2018-10-11T03:26:57.384Z,102323.95
2018-10-11T03:28:00.281Z,102327.08
2018-10-11T03:29:02.887Z,102332.43
2018-10-11T03:30:05.552Z,102332.05
2018-10-11T03:31:08.253Z,102331.09
2018-10-11T03:32:10.837Z,102331.59
2018-10-11T03:33:14.203Z,102329.00
2018-10-11T03:34:16.802Z,102324.53
2018-10-11T03:35:19.395Z,102330.25
2018-10-11T03:36:22.028Z,102330.72
2018-10-11T03:37:24.641Z,102327.58
2018-10-11T03:38:27.294Z,102322.70
2018-10-11T03:39:29.890Z,102325.37
2018-10-11T03:40:32.499Z,102330.72
2018-10-11T03:41:35.116Z,102334.34
2018-10-11T03:42:37.720Z,102337.39
2018-10-11T03:43:40.364Z,102338.73
2018-10-11T03:44:42.989Z,102336.06
2018-10-11T03:45:45.579Z,102336.18
2018-10-11T03:46:48.171Z,102334.34
2018-10-11T03:47:50.812Z,102335.69
2018-10-11T03:48:53.439Z,102336.18
2018-10-11T03:49:56.023Z,102333.02
2018-10-11T03:50:58.703Z,102333.97
2018-10-11T03:52:01.288Z,102329.50
2018-10-11T03:53:03.931Z,102330.45
2018-10-11T03:54:06.715Z,102329.50
2018-10-11T03:55:09.331Z,102327.67
2018-10-11T03:56:11.941Z,102328.63
2018-10-11T03:57:14.583Z,102325.58
2018-10-11T03:58:17.171Z,102327.30
2018-10-11T03:59:19.973Z,102327.30
2018-10-11T04:00:22.668Z,102324.16
2018-10-11T04:01:25.363Z,102324.24
2018-10-11T04:02:27.952Z,102326.91
2018-10-11T04:03:30.591Z,102328.75
2018-10-11T04:04:33.271Z,102327.79
2018-10-11T04:05:35.893Z,102330.92
2018-10-11T04:06:38.499Z,102326.54
2018-10-11T04:07:41.125Z,102325.70
2018-10-11T04:08:43.727Z,102333.72
2018-10-11T04:09:46.339Z,102333.22
2018-10-11T04:10:48.935Z,102330.55
2018-10-11T04:11:51.526Z,102328.83
2018-10-11T04:12:54.131Z,102324.83
2018-10-11T04:13:56.743Z,102330.67
2018-10-11T04:14:59.388Z,102328.45
2018-10-11T04:16:02.007Z,102330.67
2018-10-11T04:17:04.619Z,102335.14
2018-10-11T04:18:07.311Z,102337.81
2018-10-11T04:19:09.907Z,102335.63
2018-10-11T04:20:12.559Z,102340.11
2018-10-11T04:21:15.164Z,102336.97
2018-10-11T04:22:17.775Z,102331.71
2018-10-11T04:23:30.769Z,102333.92
2018-10-11T04:24:33.360Z,102340.60
2018-10-11T04:25:35.971Z,102339.73
2018-10-11T04:26:38.576Z,102341.06
2018-10-11T04:27:41.167Z,102339.35
2018-10-11T04:28:43.767Z,102345.06
2018-10-11T04:29:46.359Z,102354.92
2018-10-11T04:30:48.995Z,102352.70
2018-10-11T04:31:51.592Z,102351.38
2018-10-11T04:32:54.599Z,102350.53
2018-10-11T04:33:57.223Z,102350.62
2018-10-11T04:35:00.065Z,102350.62
2018-10-11T04:36:02.760Z,102342.61
2018-10-11T04:37:05.428Z,102345.27
2018-10-11T04:38:08.023Z,102341.27
2018-10-11T04:39:10.643Z,102339.09
2018-10-11T04:40:13.259Z,102339.55
2018-10-11T04:41:15.872Z,102340.89
2018-10-11T04:42:18.463Z,102340.42
2018-10-11T04:43:21.123Z,102333.84
2018-10-11T04:44:23.708Z,102340.02
2018-10-11T04:45:26.314Z,102338.42
2018-10-11T04:46:28.971Z,102340.02
2018-10-11T04:47:31.579Z,102332.50
2018-10-11T04:48:34.203Z,102340.02
2018-10-11T04:49:36.807Z,102335.17
2018-10-11T04:50:40.783Z,102345.36
2018-10-11T04:51:43.923Z,102341.36
2018-10-11T04:52:46.535Z,102340.89
2018-10-11T04:53:54.719Z,102336.50
2018-10-11T04:54:57.324Z,102344.98
2018-10-11T04:55:59.912Z,102349.48
2018-10-11T04:57:02.560Z,102348.61
2018-10-11T04:58:05.159Z,102353.49
2018-10-11T04:59:07.786Z,102346.44
2018-10-11T05:00:10.403Z,102347.66
2018-10-11T05:01:13.003Z,102349.11
2018-10-11T05:02:15.689Z,102349.11
2018-10-11T05:03:18.283Z,102354.91
2018-10-11T05:04:20.895Z,102356.75
2018-10-11T05:05:23.592Z,102350.06
2018-10-11T05:06:26.207Z,102361.13
2018-10-11T05:07:28.796Z,102354.91
2018-10-11T05:08:31.386Z,102359.41
2018-10-11T05:09:34.095Z,102358.92
2018-10-11T05:10:36.747Z,102366.09
2018-10-11T05:11:40.235Z,102358.08
2018-10-11T05:12:42.995Z,102358.55
2018-10-11T05:13:47.848Z,102367.89
2018-10-11T05:14:50.896Z,102361.22
2018-10-11T05:15:53.536Z,102371.44
2018-10-11T05:16:56.159Z,102367.52
2018-10-11T05:17:58.917Z,102369.72
2018-10-11T05:19:02.707Z,102369.72
2018-10-11T05:20:06.019Z,102369.34
2018-10-11T05:21:08.694Z,102369.34
2018-10-11T05:22:11.424Z,102374.11
2018-10-11T05:23:14.492Z,102358.28
2018-10-11T05:24:17.172Z,102368.85
2018-10-11T05:25:19.883Z,102363.51
2018-10-11T05:26:22.578Z,102370.19
2018-10-11T05:27:25.307Z,102372.02
2018-10-11T05:28:28.346Z,102375.53
2018-10-11T05:29:30.987Z,102374.20
2018-10-11T05:30:33.737Z,102377.62
2018-10-11T05:31:36.722Z,102372.28
2018-10-11T05:32:39.533Z,102379.25
2018-10-11T05:33:43.392Z,102379.63
2018-10-11T05:34:46.068Z,102374.66
2018-10-11T05:35:48.738Z,102376.75
2018-10-11T05:36:51.388Z,102378.96
2018-10-11T05:37:54.050Z,102373.50
2018-10-11T05:38:57.074Z,102371.41
2018-10-11T05:39:59.810Z,102381.31
2018-10-11T05:41:02.535Z,102381.80
2018-10-11T05:42:05.274Z,102381.31
2018-10-11T05:43:08.066Z,102382.64
2018-10-11T05:44:11.154Z,102381.69
2018-10-11T05:45:19.307Z,102387.41
2018-10-11T05:46:26.230Z,102381.23
2018-10-11T05:47:29.002Z,102384.36
2018-10-11T05:48:32.726Z,102364.84
2018-10-11T05:49:35.840Z,102383.41
2018-10-11T05:50:39.104Z,102389.13
2018-10-11T05:51:41.922Z,102390.45
2018-10-11T05:52:45.490Z,102386.45
2018-10-11T05:53:48.266Z,102389.13
2018-10-11T05:54:51.320Z,102394.09
2018-10-11T05:55:54.308Z,102386.45
2018-10-11T05:56:57.059Z,102384.73
2018-10-11T05:58:00.086Z,102384.36
2018-10-11T05:59:03.338Z,102388.74
2018-10-11T06:00:06.894Z,102389.62
2018-10-11T06:01:11.918Z,102383.41
2018-10-11T06:02:14.968Z,102386.45
2018-10-11T06:03:17.710Z,102383.41
2018-10-11T06:04:20.558Z,102392.30
2018-10-11T06:05:23.454Z,102391.80
2018-10-11T06:06:26.171Z,102392.30
2018-10-11T06:07:28.966Z,102394.59
2018-10-11T06:08:31.717Z,102395.42
2018-10-11T06:09:34.506Z,102404.31
2018-10-11T06:10:39.382Z,102402.11
2018-10-11T06:11:42.242Z,102401.27
2018-10-11T06:12:45.027Z,102402.11
2018-10-11T06:13:48.622Z,102399.43
2018-10-11T06:14:51.457Z,102395.92
2018-10-11T06:15:54.242Z,102400.77
2018-10-11T06:16:56.903Z,102401.73
2018-10-11T06:17:59.664Z,102399.05
2018-10-11T06:19:02.438Z,102407.07
2018-10-11T06:20:05.262Z,102405.36
2018-10-11T06:21:08.390Z,102409.74
2018-10-11T06:22:11.122Z,102412.03
2018-10-11T06:23:13.794Z,102413.37
2018-10-11T06:24:16.474Z,102416.42
2018-10-11T06:25:19.171Z,102409.36
2018-10-11T06:26:21.862Z,102408.15
2018-10-11T06:27:24.612Z,102408.53
2018-10-11T06:28:27.387Z,102413.37
2018-10-11T06:29:30.187Z,102408.03
2018-10-11T06:30:33.810Z,102411.66
2018-10-11T06:31:36.977Z,102410.33
2018-10-11T06:32:39.761Z,102408.53
2018-10-11T06:33:43.828Z,102410.82
2018-10-11T06:34:46.558Z,102411.66
2018-10-11T06:35:49.451Z,102408.53
2018-10-11T06:36:52.614Z,102415.20
2018-10-11T06:37:55.415Z,102409.95
2018-10-11T06:38:58.894Z,102412.53
2018-10-11T06:40:01.672Z,102412.16
2018-10-11T06:41:04.407Z,102412.16
2018-10-11T06:42:07.416Z,102416.16
2018-10-11T06:43:10.126Z,102416.16
2018-10-11T06:44:12.923Z,102414.83
2018-10-11T06:45:16.046Z,102412.62
2018-10-11T06:46:18.842Z,102408.61
2018-10-11T06:47:22.070Z,102410.33
2018-10-11T06:48:24.871Z,102406.89
2018-10-11T06:49:27.606Z,102404.59
2018-10-11T06:50:30.444Z,102405.56
2018-10-11T06:51:33.306Z,102410.44
2018-10-11T06:52:36.334Z,102409.56
2018-10-11T06:53:39.283Z,102403.84
2018-10-11T06:54:42.418Z,102403.77
2018-10-11T06:55:45.067Z,102405.94
2018-10-11T06:56:47.749Z,102408.23
2018-10-11T06:57:50.798Z,102410.91
2018-10-11T06:58:53.466Z,102409.56
2018-10-11T06:59:56.124Z,102408.34
2018-10-11T07:00:58.794Z,102413.11
2018-10-11T07:02:01.608Z,102405.18
2018-10-11T07:03:04.531Z,102408.23
2018-10-11T07:04:07.246Z,102414.91
2018-10-11T07:05:09.883Z,102410.91
2018-10-11T07:06:12.591Z,102415.28
2018-10-11T07:07:15.428Z,102417.58
2018-10-11T07:08:18.414Z,102417.95
2018-10-11T07:09:21.116Z,102411.77
2018-10-11T07:10:23.895Z,102416.63
2018-10-11T07:11:26.542Z,102419.79
2018-10-11T07:12:29.190Z,102415.66
2018-10-11T07:13:32.214Z,102420.63
2018-10-11T07:14:34.919Z,102414.83
2018-10-11T07:15:37.558Z,102413.95
2018-10-11T07:16:40.208Z,102419.30
2018-10-11T07:17:42.861Z,102395.77
2018-10-11T07:18:45.822Z,102423.68
2018-10-11T07:19:48.465Z,102424.17
2018-10-11T07:20:51.123Z,102429.52
2018-10-11T07:21:53.792Z,102431.70
2018-10-11T07:22:56.443Z,102433.53
2018-10-11T07:23:59.470Z,102437.04
2018-10-11T07:25:02.130Z,102437.53
2018-10-11T07:26:04.859Z,102444.59
2018-10-11T07:27:07.590Z,102439.71
2018-10-11T07:28:10.246Z,102442.88
2018-10-11T07:29:13.251Z,102438.38
2018-10-11T07:30:15.898Z,102439.25
2018-10-11T07:31:18.547Z,102445.93
2018-10-11T07:32:21.190Z,102447.14
2018-10-11T07:33:24.255Z,102447.27
2018-10-11T07:34:27.327Z,102446.77
2018-10-11T07:35:30.258Z,102449.44
2018-10-11T07:36:32.926Z,102441.92
2018-10-11T07:37:35.572Z,102449.82
2018-10-11T07:38:38.218Z,102447.27
2018-10-11T07:39:41.166Z,102442.77
2018-10-11T07:40:43.928Z,102448.11
2018-10-11T07:41:46.494Z,102440.96
2018-10-11T07:42:49.146Z,102441.92
2018-10-11T07:43:51.794Z,102447.14
2018-10-11T07:44:54.594Z,102444.09
2018-10-11T07:45:57.235Z,102444.48
2018-10-11T07:46:59.885Z,102440.01
2018-10-11T07:48:02.554Z,102444.97
2018-10-11T07:49:06.226Z,102439.13
2018-10-11T07:50:09.006Z,102446.19
2018-10-11T07:51:11.653Z,102442.68
2018-10-11T07:52:14.293Z,102442.68
2018-10-11T07:53:16.945Z,102437.80
2018-10-11T07:54:19.590Z,102444.48
2018-10-11T07:55:22.386Z,102443.63
2018-10-11T07:56:25.054Z,102440.09
2018-10-11T07:57:27.694Z,102441.34
2018-10-11T07:58:30.338Z,102443.14
2018-10-11T07:59:32.986Z,102439.13
2018-10-11T08:00:35.717Z,102443.52
2018-10-11T08:01:38.436Z,102443.52
2018-10-11T08:02:41.922Z,102438.30
2018-10-11T08:03:44.582Z,102443.52
2018-10-11T08:04:47.230Z,102441.22
2018-10-11T08:05:49.931Z,102438.17
2018-10-11T08:06:52.907Z,102447.91
2018-10-11T08:07:55.587Z,102438.67
2018-10-11T08:08:58.257Z,102443.05
2018-10-11T08:10:00.946Z,102443.90
2018-10-11T08:11:03.875Z,102447.91
2018-10-11T08:12:06.677Z,102447.44
2018-10-11T08:13:09.262Z,102446.95
2018-10-11T08:14:12.158Z,102443.05
2018-10-11T08:15:14.818Z,102444.77
2018-10-11T08:16:17.595Z,102446.48
2018-10-11T08:17:20.686Z,102447.91
2018-10-11T08:18:22.991Z,102452.67
2018-10-11T08:19:25.799Z,102454.50
2018-10-11T08:20:28.400Z,102448.78
2018-10-11T08:21:31.073Z,102455.34
2018-10-11T08:22:33.782Z,102454.96
2018-10-11T08:23:36.449Z,102448.66
2018-10-11T08:24:39.154Z,102446.11
2018-10-11T08:25:42.353Z,102448.66
2018-10-11T08:26:44.640Z,102448.66
2018-10-11T08:27:47.266Z,102449.62
2018-10-11T08:28:49.910Z,102449.53
2018-10-11T08:29:52.558Z,102453.16
2018-10-11T08:30:55.199Z,102445.98
2018-10-11T08:31:57.909Z,102447.82
2018-10-11T08:33:00.583Z,102444.66
2018-10-11T08:34:03.235Z,102447.70
2018-10-11T08:35:05.915Z,102449.04
2018-10-11T08:36:08.782Z,102447.70
2018-10-11T08:37:11.482Z,102446.75
2018-10-11T08:38:14.401Z,102450.75
2018-10-11T08:39:16.816Z,102445.41
2018-10-11T08:40:19.519Z,102443.23
2018-10-11T08:41:22.167Z,102445.79
2018-10-11T08:42:24.862Z,102452.47
2018-10-11T08:43:27.583Z,102452.97
2018-10-11T08:44:30.199Z,102446.17
2018-10-11T08:45:32.838Z,102444.45
2018-10-11T08:46:35.486Z,102447.50
2018-10-11T08:47:38.222Z,102439.60
2018-10-11T08:48:40.874Z,102441.78
2018-10-11T08:49:43.511Z,102441.31
2018-10-11T08:50:46.180Z,102440.44
2018-10-11T08:51:48.868Z,102450.55
2018-10-11T08:52:51.554Z,102450.55
2018-10-11T08:53:54.284Z,102440.44
2018-10-11T08:54:56.979Z,102447.50
2018-10-11T08:55:59.640Z,102446.92
2018-10-11T08:57:02.406Z,102444.83
2018-10-11T08:58:05.286Z,102452.27
2018-10-11T08:59:07.973Z,102453.60
2018-10-11T09:00:10.650Z,102450.47
2018-10-11T09:01:13.282Z,102445.12
2018-10-11T09:02:15.926Z,102454.48
2018-10-11T09:03:18.712Z,102451.30
2018-10-11T09:04:21.320Z,102420.95
2018-10-11T09:05:23.986Z,102453.52
2018-10-11T09:06:26.638Z,102447.30
2018-10-11T09:07:29.321Z,102445.97
2018-10-11T09:08:32.014Z,102445.50
2018-10-11T09:09:34.689Z,102446.34
2018-10-11T09:10:38.516Z,102445.00
2018-10-11T09:11:40.093Z,102445.00
2018-10-11T09:12:42.768Z,102443.67
2018-10-11T09:13:45.502Z,102442.33
2018-10-11T09:14:48.150Z,102442.33
2018-10-11T09:15:50.799Z,102437.40
2018-10-11T09:16:53.587Z,102437.48
2018-10-11T09:17:56.271Z,102437.40
2018-10-11T09:18:58.974Z,102438.73
2018-10-11T09:20:01.646Z,102443.58
2018-10-11T09:21:04.330Z,102443.58
2018-10-11T09:22:07.019Z,102436.06
2018-10-11T09:23:09.686Z,102434.73
2018-10-11T09:24:12.391Z,102435.56
2018-10-11T09:25:15.055Z,102441.29
2018-10-11T09:26:17.710Z,102441.78
2018-10-11T09:27:20.424Z,102441.78
2018-10-11T09:28:23.044Z,102439.49
2018-10-11T09:29:25.738Z,102440.83
2018-10-11T09:30:28.440Z,102442.55
2018-10-11T09:31:31.087Z,102443.00
2018-10-11T09:32:33.750Z,102439.49
2018-10-11T09:33:36.403Z,102439.87
2018-10-11T09:34:39.124Z,102441.20
2018-10-11T09:35:41.786Z,102447.39
2018-10-11T09:36:44.436Z,102447.89
2018-10-11T09:37:47.121Z,102444.72
2018-10-11T09:38:50.750Z,102444.72
2018-10-11T09:39:53.714Z,102442.92
2018-10-11T09:40:56.358Z,102445.09
2018-10-11T09:41:58.993Z,102440.70
2018-10-11T09:43:01.701Z,102379.27
2018-10-11T09:44:04.365Z,102449.98
2018-10-11T09:45:07.605Z,102441.46
2018-10-11T09:46:10.278Z,102445.47
2018-10-11T09:47:12.918Z,102442.34
2018-10-11T09:48:15.573Z,102444.52
2018-10-11T09:49:18.220Z,102447.19
2018-10-11T09:50:20.879Z,102445.01
2018-10-11T09:51:23.530Z,102442.72
2018-10-11T09:52:26.178Z,102442.72
2018-10-11T09:53:28.871Z,102439.55
2018-10-11T09:54:31.649Z,102438.70
2018-10-11T09:55:34.326Z,102437.38
2018-10-11T09:57:48.179Z,102438.20
2018-10-11T09:58:50.859Z,102438.50
2018-10-11T09:59:53.586Z,102440.80
2018-10-11T10:01:01.790Z,102439.08
2018-10-11T10:02:04.613Z,102435.08
2018-10-11T10:03:07.272Z,102434.70
2018-10-11T10:04:09.914Z,102431.64
2018-10-11T10:05:12.607Z,102433.83
2018-10-11T10:06:15.254Z,102432.86
2018-10-11T10:07:17.927Z,102433.36
2018-10-11T10:08:20.594Z,102428.39
2018-10-11T10:09:23.246Z,102422.09
2018-10-11T10:10:25.943Z,102422.55
2018-10-11T10:11:28.794Z,102424.18
2018-10-11T10:12:31.446Z,102422.84
2018-10-11T10:13:34.082Z,102423.22
2018-10-11T10:14:36.734Z,102423.09
2018-10-11T10:15:39.453Z,102425.77
2018-10-11T10:16:42.116Z,102424.81
2018-10-11T10:17:44.779Z,102413.66
2018-10-11T10:18:47.422Z,102417.55
2018-10-11T10:19:50.071Z,102413.91
2018-10-11T10:20:52.711Z,102414.41
2018-10-11T10:21:55.554Z,102418.30
2018-10-11T10:22:58.224Z,102416.13
2018-10-11T10:24:00.886Z,102416.87
2018-10-11T10:25:03.642Z,102415.54
2018-10-11T10:26:06.290Z,102412.87
2018-10-11T10:27:09.169Z,102419.47
2018-10-11T10:28:11.734Z,102418.12
2018-10-11T10:29:14.370Z,102414.58
2018-10-11T10:30:22.582Z,102421.18
2018-10-11T10:31:25.218Z,102418.01
2018-10-11T10:32:27.866Z,102416.67
2018-10-11T10:33:30.522Z,102409.98
2018-10-11T10:34:33.186Z,102416.21
2018-10-11T10:35:35.834Z,102417.92
2018-10-11T10:36:38.494Z,102414.38
2018-10-11T10:37:41.218Z,102411.61
2018-10-11T10:38:43.858Z,102412.58
2018-10-11T10:39:46.543Z,102408.45
2018-10-11T10:40:49.210Z,102410.16
2018-10-11T10:41:52.130Z,102404.44
2018-10-11T10:42:55.090Z,102408.82
2018-10-11T10:43:57.742Z,102406.15
2018-10-11T10:45:00.375Z,102406.15
2018-10-11T10:46:03.050Z,102407.86
2018-10-11T10:47:05.702Z,102406.06
2018-10-11T10:48:08.847Z,102399.84
2018-10-11T10:49:11.526Z,102402.42
2018-10-11T10:50:14.170Z,102399.25
2018-10-11T10:51:16.811Z,102402.80
2018-10-11T10:52:19.471Z,102396.12
2018-10-11T10:53:22.491Z,102396.95
2018-10-11T10:54:31.326Z,102390.27
2018-10-11T10:55:33.974Z,102395.07
2018-10-11T10:56:36.826Z,102390.59
2018-10-11T10:57:39.470Z,102384.00
2018-10-11T10:58:42.231Z,102392.77
2018-10-11T10:59:44.916Z,102387.42
2018-10-11T11:00:47.559Z,102364.66
2018-10-11T11:01:50.215Z,102389.13
2018-10-11T11:02:52.853Z,102386.84
2018-10-11T11:03:55.830Z,102386.37
2018-10-11T11:04:58.498Z,102389.88
2018-10-11T11:06:01.150Z,102386.75
2018-10-11T11:07:03.854Z,102383.58
2018-10-11T11:08:06.519Z,102386.25
2018-10-11T11:09:10.894Z,102385.79
2018-10-11T11:10:13.547Z,102378.61
2018-10-11T11:11:16.486Z,102382.62
2018-10-11T11:12:19.142Z,102382.99
2018-10-11T11:13:22.128Z,102381.66
2018-10-11T11:14:24.554Z,102375.47
2018-10-11T11:15:27.186Z,102386.54
2018-10-11T11:16:29.828Z,102384.70
2018-10-11T11:17:32.474Z,102386.54
2018-10-11T11:18:35.135Z,102389.09
2018-10-11T11:19:38.069Z,102386.04
2018-10-11T11:20:40.718Z,102363.75
2018-10-11T11:21:43.366Z,102388.16
2018-10-11T11:22:46.007Z,102390.84
2018-10-11T11:23:48.687Z,102388.63
2018-10-11T11:24:51.668Z,102381.48
2018-10-11T11:25:54.317Z,102379.17
2018-10-11T11:26:56.958Z,102384.53
2018-10-11T11:27:59.614Z,102385.86
2018-10-11T11:29:02.315Z,102384.91
2018-10-11T11:30:05.418Z,102385.86
2018-10-11T11:31:08.130Z,102382.61
2018-10-11T11:32:10.738Z,102382.61
2018-10-11T11:33:13.495Z,102375.05
2018-10-11T11:34:16.130Z,102375.54
2018-10-11T11:35:19.090Z,102372.66
2018-10-11T11:36:21.784Z,102379.43
2018-10-11T11:37:24.424Z,102372.66
2018-10-11T11:38:27.058Z,102366.55
2018-10-11T11:39:29.710Z,102369.11
2018-10-11T11:40:32.434Z,102366.93
2018-10-11T11:41:35.117Z,102368.64
2018-10-11T11:42:37.750Z,102369.98
2018-10-11T11:43:40.700Z,102366.81
2018-10-11T11:44:43.370Z,102373.03
2018-10-11T11:45:46.078Z,102363.67
2018-10-11T11:46:48.742Z,102374.37
2018-10-11T11:47:51.411Z,102368.52
2018-10-11T11:48:54.055Z,102368.89
2018-10-11T11:49:56.694Z,102364.05
2018-10-11T11:50:59.426Z,102361.38
2018-10-11T11:52:02.061Z,102358.32
2018-10-11T11:53:04.751Z,102358.20
2018-10-11T11:54:12.890Z,102359.16
2018-10-11T11:55:15.523Z,102352.38
2018-10-11T11:56:18.222Z,102354.69
2018-10-11T11:57:20.874Z,102354.69
2018-10-11T11:58:23.519Z,102354.69